sensor_id;sensor_type;location;lat;lon;timestamp;pressure;altitude;pressure_sealevel;temperature;humidity
9141;BME280;46330;50.822;7.126;2022-07-23T00:00:48;101092.75;;;18.72;77.37
9141;BME280;46330;50.822;7.126;2022-07-23T00:03:17;101091.97;;;18.70;76.96
9141;BME280;46330;50.822;7.126;2022-07-23T00:05:44;101099.00;;;18.71;76.37
9141;BME280;46330;50.822;7.126;2022-07-23T00:08:12;101088.31;;;18.72;75.89
9141;BME280;46330;50.822;7.126;2022-07-23T00:10:40;101081.84;;;18.78;75.17
9141;BME280;46330;50.822;7.126;2022-07-23T00:13:08;101078.28;;;18.79;75.46
9141;BME280;46330;50.822;7.126;2022-07-23T00:15:36;101074.00;;;18.76;75.73
9141;BME280;46330;50.822;7.126;2022-07-23T00:18:05;101086.03;;;18.65;77.11
9141;BME280;46330;50.822;7.126;2022-07-23T00:20:33;101089.31;;;18.70;77.39
9141;BME280;46330;50.822;7.126;2022-07-23T00:23:01;101089.34;;;18.68;76.68
9141;BME280;46330;50.822;7.126;2022-07-23T00:25:29;101092.16;;;18.65;76.82
9141;BME280;46330;50.822;7.126;2022-07-23T00:27:58;101087.72;;;18.66;76.49
9141;BME280;46330;50.822;7.126;2022-07-23T00:30:27;101078.13;;;18.63;76.32
9141;BME280;46330;50.822;7.126;2022-07-23T00:32:58;101089.78;;;18.59;76.91
9141;BME280;46330;50.822;7.126;2022-07-23T00:35:30;101085.00;;;18.67;77.37
9141;BME280;46330;50.822;7.126;2022-07-23T00:37:58;101069.31;;;18.63;77.58
9141;BME280;46330;50.822;7.126;2022-07-23T00:40:29;101063.16;;;18.62;77.26
9141;BME280;46330;50.822;7.126;2022-07-23T00:42:57;101071.09;;;18.62;77.10
9141;BME280;46330;50.822;7.126;2022-07-23T00:45:25;101089.91;;;18.56;77.58
9141;BME280;46330;50.822;7.126;2022-07-23T00:47:54;101090.50;;;18.63;77.82
9141;BME280;46330;50.822;7.126;2022-07-23T00:50:22;101092.50;;;18.58;77.83
9141;BME280;46330;50.822;7.126;2022-07-23T00:52:52;101085.63;;;18.54;77.56
9141;BME280;46330;50.822;7.126;2022-07-23T00:55:21;101097.13;;;18.53;77.25
9141;BME280;46330;50.822;7.126;2022-07-23T00:57:50;101097.34;;;18.48;78.17
9141;BME280;46330;50.822;7.126;2022-07-23T01:00:18;101095.53;;;18.49;78.25
9141;BME280;46330;50.822;7.126;2022-07-23T01:02:46;101095.22;;;18.56;77.79
9141;BME280;46330;50.822;7.126;2022-07-23T01:05:14;101092.66;;;18.55;77.58
9141;BME280;46330;50.822;7.126;2022-07-23T01:07:43;101085.72;;;18.52;77.58
9141;BME280;46330;50.822;7.126;2022-07-23T01:10:13;101080.13;;;18.58;77.66
9141;BME280;46330;50.822;7.126;2022-07-23T01:13:02;101082.84;;;18.57;78.77
9141;BME280;46330;50.822;7.126;2022-07-23T01:15:31;101086.41;;;18.56;78.07
9141;BME280;46330;50.822;7.126;2022-07-23T01:17:59;101088.09;;;18.58;78.48
9141;BME280;46330;50.822;7.126;2022-07-23T01:20:29;101088.84;;;18.60;78.52
9141;BME280;46330;50.822;7.126;2022-07-23T01:22:58;101088.78;;;18.62;78.20
9141;BME280;46330;50.822;7.126;2022-07-23T01:25:27;101076.19;;;18.67;77.64
9141;BME280;46330;50.822;7.126;2022-07-23T01:28:01;101069.41;;;18.61;77.32
9141;BME280;46330;50.822;7.126;2022-07-23T01:30:28;101062.28;;;18.62;77.45
9141;BME280;46330;50.822;7.126;2022-07-23T01:32:58;101056.97;;;18.62;77.72
9141;BME280;46330;50.822;7.126;2022-07-23T01:35:26;101055.28;;;18.61;78.80
9141;BME280;46330;50.822;7.126;2022-07-23T01:38:00;101056.28;;;18.58;79.12
9141;BME280;46330;50.822;7.126;2022-07-23T01:40:28;101063.38;;;18.58;78.92
9141;BME280;46330;50.822;7.126;2022-07-23T01:42:57;101064.44;;;18.54;79.33
9141;BME280;46330;50.822;7.126;2022-07-23T01:45:27;101060.38;;;18.45;79.46
9141;BME280;46330;50.822;7.126;2022-07-23T01:47:55;101061.09;;;18.49;79.17
9141;BME280;46330;50.822;7.126;2022-07-23T01:50:23;101063.81;;;18.47;79.82
9141;BME280;46330;50.822;7.126;2022-07-23T01:53:09;101059.69;;;18.40;80.21
9141;BME280;46330;50.822;7.126;2022-07-23T01:55:37;101059.19;;;18.32;80.64
9141;BME280;46330;50.822;7.126;2022-07-23T01:58:06;101064.63;;;18.29;80.39
9141;BME280;46330;50.822;7.126;2022-07-23T02:00:35;101067.41;;;18.26;81.11
9141;BME280;46330;50.822;7.126;2022-07-23T02:03:03;101066.28;;;18.32;80.39
9141;BME280;46330;50.822;7.126;2022-07-23T02:05:35;101068.88;;;18.33;80.87
9141;BME280;46330;50.822;7.126;2022-07-23T02:08:04;101069.88;;;18.31;80.90
9141;BME280;46330;50.822;7.126;2022-07-23T02:10:36;101063.91;;;18.25;80.90
9141;BME280;46330;50.822;7.126;2022-07-23T02:13:05;101064.19;;;18.19;81.15
9141;BME280;46330;50.822;7.126;2022-07-23T02:15:33;101058.97;;;18.18;80.92
9141;BME280;46330;50.822;7.126;2022-07-23T02:18:01;101061.66;;;18.16;81.77
9141;BME280;46330;50.822;7.126;2022-07-23T02:20:30;101061.00;;;18.11;82.47
9141;BME280;46330;50.822;7.126;2022-07-23T02:22:58;101062.72;;;18.12;81.93
9141;BME280;46330;50.822;7.126;2022-07-23T02:25:27;101053.94;;;18.12;82.80
9141;BME280;46330;50.822;7.126;2022-07-23T02:28:01;101053.38;;;18.04;84.14
9141;BME280;46330;50.822;7.126;2022-07-23T02:30:29;101042.63;;;18.08;84.89
9141;BME280;46330;50.822;7.126;2022-07-23T02:32:57;101044.53;;;18.05;85.16
9141;BME280;46330;50.822;7.126;2022-07-23T02:35:25;101038.50;;;18.01;87.67
9141;BME280;46330;50.822;7.126;2022-07-23T02:37:56;101052.13;;;17.92;88.06
9141;BME280;46330;50.822;7.126;2022-07-23T02:40:25;101047.09;;;17.86;88.87
9141;BME280;46330;50.822;7.126;2022-07-23T02:42:53;101056.03;;;17.84;89.29
9141;BME280;46330;50.822;7.126;2022-07-23T02:45:22;101049.19;;;17.78;90.49
9141;BME280;46330;50.822;7.126;2022-07-23T02:47:52;101039.47;;;17.79;90.03
9141;BME280;46330;50.822;7.126;2022-07-23T02:50:20;101043.06;;;17.78;90.65
9141;BME280;46330;50.822;7.126;2022-07-23T02:52:49;101036.72;;;17.82;90.90
9141;BME280;46330;50.822;7.126;2022-07-23T02:55:17;101048.94;;;17.84;90.98
9141;BME280;46330;50.822;7.126;2022-07-23T02:57:45;101049.03;;;17.83;92.32
9141;BME280;46330;50.822;7.126;2022-07-23T03:00:13;101041.22;;;17.80;91.71
9141;BME280;46330;50.822;7.126;2022-07-23T03:02:43;101037.91;;;17.75;91.88
9141;BME280;46330;50.822;7.126;2022-07-23T03:05:11;101040.78;;;17.68;92.44
9141;BME280;46330;50.822;7.126;2022-07-23T03:07:39;101042.53;;;17.69;92.42
9141;BME280;46330;50.822;7.126;2022-07-23T03:10:07;101046.41;;;17.61;92.42
9141;BME280;46330;50.822;7.126;2022-07-23T03:12:35;101047.34;;;17.60;92.69
9141;BME280;46330;50.822;7.126;2022-07-23T03:15:04;101048.41;;;17.54;93.39
9141;BME280;46330;50.822;7.126;2022-07-23T03:17:32;101049.31;;;17.55;94.10
9141;BME280;46330;50.822;7.126;2022-07-23T03:20:03;101045.00;;;17.52;94.77
9141;BME280;46330;50.822;7.126;2022-07-23T03:22:31;101047.56;;;17.54;94.48
9141;BME280;46330;50.822;7.126;2022-07-23T03:24:59;101052.31;;;17.46;95.05
9141;BME280;46330;50.822;7.126;2022-07-23T03:27:32;101057.03;;;17.38;94.76
9141;BME280;46330;50.822;7.126;2022-07-23T03:30:00;101059.03;;;17.33;95.31
9141;BME280;46330;50.822;7.126;2022-07-23T03:32:28;101061.50;;;17.37;95.55
9141;BME280;46330;50.822;7.126;2022-07-23T03:34:57;101059.63;;;17.39;95.88
9141;BME280;46330;50.822;7.126;2022-07-23T03:37:27;101059.75;;;17.36;96.11
9141;BME280;46330;50.822;7.126;2022-07-23T03:39:57;101065.34;;;17.29;96.68
9141;BME280;46330;50.822;7.126;2022-07-23T03:42:26;101056.66;;;17.25;96.78
9141;BME280;46330;50.822;7.126;2022-07-23T03:44:54;101060.63;;;17.15;97.43
9141;BME280;46330;50.822;7.126;2022-07-23T03:47:22;101057.63;;;17.01;98.34
9141;BME280;46330;50.822;7.126;2022-07-23T03:49:50;101057.41;;;17.07;98.04
9141;BME280;46330;50.822;7.126;2022-07-23T03:52:18;101061.91;;;17.05;98.04
9141;BME280;46330;50.822;7.126;2022-07-23T03:54:47;101061.00;;;17.06;97.97
9141;BME280;46330;50.822;7.126;2022-07-23T03:57:15;101062.81;;;17.04;98.11
9141;BME280;46330;50.822;7.126;2022-07-23T03:59:43;101071.56;;;17.06;98.24
9141;BME280;46330;50.822;7.126;2022-07-23T04:02:12;101065.56;;;17.01;98.48
9141;BME280;46330;50.822;7.126;2022-07-23T04:04:40;101067.31;;;17.02;98.80
9141;BME280;46330;50.822;7.126;2022-07-23T04:07:07;101076.63;;;16.89;100.00
9141;BME280;46330;50.822;7.126;2022-07-23T04:09:36;101075.81;;;16.87;100.00
9141;BME280;46330;50.822;7.126;2022-07-23T04:12:13;101079.44;;;16.84;100.00
9141;BME280;46330;50.822;7.126;2022-07-23T04:14:41;101082.88;;;16.86;100.00
9141;BME280;46330;50.822;7.126;2022-07-23T04:17:09;101092.38;;;16.69;100.00
9141;BME280;46330;50.822;7.126;2022-07-23T04:19:38;101092.19;;;16.73;100.00
9141;BME280;46330;50.822;7.126;2022-07-23T04:22:09;101093.81;;;16.77;100.00
9141;BME280;46330;50.822;7.126;2022-07-23T04:24:37;101097.31;;;16.78;100.00
9141;BME280;46330;50.822;7.126;2022-07-23T04:27:05;101101.09;;;16.71;100.00
9141;BME280;46330;50.822;7.126;2022-07-23T04:29:35;101095.81;;;16.71;100.00
9141;BME280;46330;50.822;7.126;2022-07-23T04:32:03;101103.63;;;16.74;100.00
9141;BME280;46330;50.822;7.126;2022-07-23T04:34:32;101103.22;;;16.84;99.90
9141;BME280;46330;50.822;7.126;2022-07-23T04:37:00;101109.63;;;17.00;98.96
9141;BME280;46330;50.822;7.126;2022-07-23T04:39:30;101112.34;;;16.99;98.06
9141;BME280;46330;50.822;7.126;2022-07-23T04:41:58;101119.84;;;17.09;97.23
9141;BME280;46330;50.822;7.126;2022-07-23T04:44:27;101123.72;;;17.24;96.62
9141;BME280;46330;50.822;7.126;2022-07-23T04:46:56;101128.06;;;17.25;96.22
9141;BME280;46330;50.822;7.126;2022-07-23T04:49:25;101131.16;;;17.36;95.43
9141;BME280;46330;50.822;7.126;2022-07-23T04:51:53;101125.63;;;17.42;93.95
9141;BME280;46330;50.822;7.126;2022-07-23T04:54:22;101126.78;;;17.35;93.81
9141;BME280;46330;50.822;7.126;2022-07-23T04:56:50;101129.94;;;17.45;93.49
9141;BME280;46330;50.822;7.126;2022-07-23T04:59:18;101134.22;;;17.47;93.30
9141;BME280;46330;50.822;7.126;2022-07-23T05:01:50;101137.28;;;17.60;92.61
9141;BME280;46330;50.822;7.126;2022-07-23T05:04:20;101128.78;;;17.73;91.85
9141;BME280;46330;50.822;7.126;2022-07-23T05:06:48;101138.88;;;17.86;91.42
9141;BME280;46330;50.822;7.126;2022-07-23T05:09:16;101131.16;;;18.01;89.97
9141;BME280;46330;50.822;7.126;2022-07-23T05:11:44;101142.97;;;18.14;89.67
9141;BME280;46330;50.822;7.126;2022-07-23T05:14:12;101144.34;;;18.23;89.30
9141;BME280;46330;50.822;7.126;2022-07-23T05:16:41;101145.13;;;18.25;89.28
9141;BME280;46330;50.822;7.126;2022-07-23T05:19:15;101135.34;;;18.27;89.02
9141;BME280;46330;50.822;7.126;2022-07-23T05:21:47;101135.97;;;18.54;87.71
9141;BME280;46330;50.822;7.126;2022-07-23T05:24:15;101131.31;;;18.59;87.55
9141;BME280;46330;50.822;7.126;2022-07-23T05:26:43;101143.69;;;18.78;86.43
9141;BME280;46330;50.822;7.126;2022-07-23T05:29:11;101134.97;;;18.95;85.57
9141;BME280;46330;50.822;7.126;2022-07-23T05:31:39;101141.72;;;19.02;84.62
9141;BME280;46330;50.822;7.126;2022-07-23T05:34:07;101143.22;;;18.89;85.28
9141;BME280;46330;50.822;7.126;2022-07-23T05:36:43;101136.81;;;18.93;84.78
9141;BME280;46330;50.822;7.126;2022-07-23T05:39:13;101141.59;;;18.66;85.35
9141;BME280;46330;50.822;7.126;2022-07-23T05:41:42;101148.22;;;18.95;84.01
9141;BME280;46330;50.822;7.126;2022-07-23T05:44:10;101143.38;;;19.23;82.34
9141;BME280;46330;50.822;7.126;2022-07-23T05:46:40;101149.56;;;19.43;82.25
9141;BME280;46330;50.822;7.126;2022-07-23T05:49:12;101155.69;;;19.62;80.20
9141;BME280;46330;50.822;7.126;2022-07-23T05:52:07;101159.72;;;19.33;82.22
9141;BME280;46330;50.822;7.126;2022-07-23T05:54:54;101159.72;;;19.33;81.81
9141;BME280;46330;50.822;7.126;2022-07-23T05:57:22;101163.50;;;19.27;82.12
9141;BME280;46330;50.822;7.126;2022-07-23T05:59:51;101159.88;;;19.30;82.03
9141;BME280;46330;50.822;7.126;2022-07-23T06:02:19;101153.56;;;19.51;80.68
9141;BME280;46330;50.822;7.126;2022-07-23T06:04:47;101155.69;;;19.98;79.22
9141;BME280;46330;50.822;7.126;2022-07-23T06:07:30;101152.56;;;20.24;76.41
9141;BME280;46330;50.822;7.126;2022-07-23T06:09:59;101160.03;;;20.52;75.13
9141;BME280;46330;50.822;7.126;2022-07-23T06:12:28;101166.00;;;20.21;75.47
9141;BME280;46330;50.822;7.126;2022-07-23T06:14:56;101171.03;;;20.10;76.03
9141;BME280;46330;50.822;7.126;2022-07-23T06:17:25;101169.31;;;20.43;75.60
9141;BME280;46330;50.822;7.126;2022-07-23T06:19:53;101164.47;;;20.17;76.03
9141;BME280;46330;50.822;7.126;2022-07-23T06:22:22;101169.41;;;20.59;73.95
9141;BME280;46330;50.822;7.126;2022-07-23T06:24:50;101166.59;;;20.45;75.79
9141;BME280;46330;50.822;7.126;2022-07-23T06:27:21;101170.81;;;20.31;75.10
9141;BME280;46330;50.822;7.126;2022-07-23T06:29:52;101168.25;;;20.80;74.20
9141;BME280;46330;50.822;7.126;2022-07-23T06:32:20;101174.50;;;21.29;72.68
9141;BME280;46330;50.822;7.126;2022-07-23T06:34:48;101174.06;;;21.52;71.33
9141;BME280;46330;50.822;7.126;2022-07-23T06:37:16;101181.63;;;21.75;69.57
9141;BME280;46330;50.822;7.126;2022-07-23T06:39:45;101179.56;;;21.33;70.57
9141;BME280;46330;50.822;7.126;2022-07-23T06:42:13;101175.34;;;21.76;68.96
9141;BME280;46330;50.822;7.126;2022-07-23T06:44:46;101179.56;;;21.49;69.27
9141;BME280;46330;50.822;7.126;2022-07-23T06:47:16;101173.38;;;22.41;67.25
9141;BME280;46330;50.822;7.126;2022-07-23T06:49:44;101182.88;;;22.75;64.72
9141;BME280;46330;50.822;7.126;2022-07-23T06:52:12;101188.13;;;23.19;62.72
9141;BME280;46330;50.822;7.126;2022-07-23T06:54:40;101189.09;;;23.46;61.30
9141;BME280;46330;50.822;7.126;2022-07-23T06:57:08;101193.06;;;23.94;59.93
9141;BME280;46330;50.822;7.126;2022-07-23T06:59:36;101198.38;;;23.67;59.76
9141;BME280;46330;50.822;7.126;2022-07-23T07:02:08;101189.16;;;23.85;59.06
9141;BME280;46330;50.822;7.126;2022-07-23T07:04:36;101208.25;;;24.59;57.12
9141;BME280;46330;50.822;7.126;2022-07-23T07:07:04;101190.31;;;24.35;57.97
9141;BME280;46330;50.822;7.126;2022-07-23T07:09:32;101195.28;;;24.14;57.59
9141;BME280;46330;50.822;7.126;2022-07-23T07:12:00;101190.53;;;24.05;57.76
9141;BME280;46330;50.822;7.126;2022-07-23T07:14:28;101198.47;;;24.46;55.86
9141;BME280;46330;50.822;7.126;2022-07-23T07:16:56;101200.84;;;24.38;54.71
9141;BME280;46330;50.822;7.126;2022-07-23T07:19:25;101198.41;;;24.21;55.15
9141;BME280;46330;50.822;7.126;2022-07-23T07:21:53;101209.38;;;24.95;52.84
9141;BME280;46330;50.822;7.126;2022-07-23T07:24:21;101208.50;;;25.07;53.14
9141;BME280;46330;50.822;7.126;2022-07-23T07:26:55;101208.63;;;25.05;54.43
9141;BME280;46330;50.822;7.126;2022-07-23T07:29:23;101208.81;;;25.53;52.35
9141;BME280;46330;50.822;7.126;2022-07-23T07:31:50;101212.66;;;25.36;52.01
9141;BME280;46330;50.822;7.126;2022-07-23T07:34:18;101219.06;;;25.95;50.63
9141;BME280;46330;50.822;7.126;2022-07-23T07:36:48;101214.63;;;25.71;50.99
9141;BME280;46330;50.822;7.126;2022-07-23T07:39:16;101208.25;;;26.55;49.72
9141;BME280;46330;50.822;7.126;2022-07-23T07:41:44;101218.44;;;26.39;48.32
9141;BME280;46330;50.822;7.126;2022-07-23T07:44:12;101215.84;;;26.14;48.45
9141;BME280;46330;50.822;7.126;2022-07-23T07:46:40;101223.63;;;27.10;45.47
9141;BME280;46330;50.822;7.126;2022-07-23T07:49:08;101216.16;;;26.81;46.29
9141;BME280;46330;50.822;7.126;2022-07-23T07:51:41;101217.13;;;26.91;45.96
9141;BME280;46330;50.822;7.126;2022-07-23T07:54:12;101226.09;;;27.58;45.35
9141;BME280;46330;50.822;7.126;2022-07-23T07:56:40;101224.84;;;27.62;42.92
9141;BME280;46330;50.822;7.126;2022-07-23T07:59:08;101230.16;;;27.52;43.02
9141;BME280;46330;50.822;7.126;2022-07-23T08:01:37;101225.66;;;27.85;44.25
9141;BME280;46330;50.822;7.126;2022-07-23T08:04:06;101234.09;;;26.91;46.66
9141;BME280;46330;50.822;7.126;2022-07-23T08:06:34;101234.84;;;27.38;43.70
9141;BME280;46330;50.822;7.126;2022-07-23T08:09:02;101233.97;;;27.93;42.17
9141;BME280;46330;50.822;7.126;2022-07-23T08:11:31;101239.59;;;28.64;42.18
9141;BME280;46330;50.822;7.126;2022-07-23T08:13:59;101239.25;;;27.72;43.81
9141;BME280;46330;50.822;7.126;2022-07-23T08:16:27;101240.00;;;28.28;43.28
9141;BME280;46330;50.822;7.126;2022-07-23T08:18:55;101235.91;;;28.13;43.41
9141;BME280;46330;50.822;7.126;2022-07-23T08:21:23;101245.22;;;26.63;46.18
9141;BME280;46330;50.822;7.126;2022-07-23T08:23:51;101242.03;;;26.23;47.20
9141;BME280;46330;50.822;7.126;2022-07-23T08:26:19;101248.56;;;26.19;47.41
9141;BME280;46330;50.822;7.126;2022-07-23T08:28:48;101250.72;;;25.90;47.90
9141;BME280;46330;50.822;7.126;2022-07-23T08:31:16;101248.38;;;26.81;46.54
9141;BME280;46330;50.822;7.126;2022-07-23T08:33:45;101260.22;;;25.94;47.83
9141;BME280;46330;50.822;7.126;2022-07-23T08:36:13;101253.44;;;25.78;48.22
9141;BME280;46330;50.822;7.126;2022-07-23T08:38:41;101262.38;;;26.26;47.05
9141;BME280;46330;50.822;7.126;2022-07-23T08:41:10;101261.59;;;27.28;44.94
9141;BME280;46330;50.822;7.126;2022-07-23T08:43:40;101266.22;;;26.93;45.72
9141;BME280;46330;50.822;7.126;2022-07-23T08:46:13;101261.47;;;26.61;45.41
9141;BME280;46330;50.822;7.126;2022-07-23T08:48:41;101261.53;;;27.63;44.22
9141;BME280;46330;50.822;7.126;2022-07-23T08:51:10;101272.53;;;25.60;47.62
9141;BME280;46330;50.822;7.126;2022-07-23T08:53:38;101267.75;;;26.49;45.83
9141;BME280;46330;50.822;7.126;2022-07-23T08:56:07;101271.84;;;25.82;46.79
9141;BME280;46330;50.822;7.126;2022-07-23T08:58:36;101261.13;;;26.42;45.91
9141;BME280;46330;50.822;7.126;2022-07-23T09:01:04;101263.44;;;27.39;43.09
9141;BME280;46330;50.822;7.126;2022-07-23T09:03:34;101270.53;;;27.84;43.05
9141;BME280;46330;50.822;7.126;2022-07-23T09:06:02;101266.91;;;28.28;39.92
9141;BME280;46330;50.822;7.126;2022-07-23T09:08:35;101268.06;;;28.14;41.40
9141;BME280;46330;50.822;7.126;2022-07-23T09:11:04;101268.56;;;28.40;39.86
9141;BME280;46330;50.822;7.126;2022-07-23T09:13:35;101264.34;;;29.41;38.27
9141;BME280;46330;50.822;7.126;2022-07-23T09:16:07;101266.72;;;29.34;37.94
9141;BME280;46330;50.822;7.126;2022-07-23T09:18:43;101269.19;;;29.17;38.13
9141;BME280;46330;50.822;7.126;2022-07-23T09:21:22;101272.56;;;29.19;37.17
9141;BME280;46330;50.822;7.126;2022-07-23T09:23:53;101272.69;;;29.68;37.21
9141;BME280;46330;50.822;7.126;2022-07-23T09:26:25;101277.22;;;29.98;36.84
9141;BME280;46330;50.822;7.126;2022-07-23T09:28:55;101281.06;;;29.65;36.02
9141;BME280;46330;50.822;7.126;2022-07-23T09:31:26;101277.69;;;31.09;34.64
9141;BME280;46330;50.822;7.126;2022-07-23T09:34:08;101271.66;;;30.00;37.16
9141;BME280;46330;50.822;7.126;2022-07-23T09:36:36;101276.41;;;30.84;35.12
9141;BME280;46330;50.822;7.126;2022-07-23T09:39:05;101271.03;;;30.65;36.24
9141;BME280;46330;50.822;7.126;2022-07-23T09:41:39;101264.38;;;30.50;36.00
9141;BME280;46330;50.822;7.126;2022-07-23T09:44:07;101274.56;;;29.77;37.50
9141;BME280;46330;50.822;7.126;2022-07-23T09:46:36;101280.81;;;29.78;37.79
9141;BME280;46330;50.822;7.126;2022-07-23T09:49:21;101279.66;;;30.11;36.89
9141;BME280;46330;50.822;7.126;2022-07-23T09:51:52;101269.75;;;30.59;36.78
9141;BME280;46330;50.822;7.126;2022-07-23T09:54:22;101271.75;;;30.67;34.60
9141;BME280;46330;50.822;7.126;2022-07-23T09:56:51;101267.88;;;30.98;34.55
9141;BME280;46330;50.822;7.126;2022-07-23T09:59:22;101270.16;;;30.26;35.35
9141;BME280;46330;50.822;7.126;2022-07-23T10:01:52;101270.91;;;30.66;35.42
9141;BME280;46330;50.822;7.126;2022-07-23T10:04:23;101278.47;;;29.94;36.53
9141;BME280;46330;50.822;7.126;2022-07-23T10:07:21;101274.38;;;30.00;36.52
9141;BME280;46330;50.822;7.126;2022-07-23T10:10:09;101268.22;;;31.41;34.82
9141;BME280;46330;50.822;7.126;2022-07-23T10:12:59;101275.03;;;30.42;36.95
9141;BME280;46330;50.822;7.126;2022-07-23T10:15:47;101268.78;;;30.60;36.65
9141;BME280;46330;50.822;7.126;2022-07-23T10:18:15;101262.41;;;31.27;34.46
9141;BME280;46330;50.822;7.126;2022-07-23T10:20:47;101266.22;;;31.34;34.07
9141;BME280;46330;50.822;7.126;2022-07-23T10:23:20;101263.13;;;31.66;33.06
9141;BME280;46330;50.822;7.126;2022-07-23T10:25:57;101264.25;;;32.35;31.84
9141;BME280;46330;50.822;7.126;2022-07-23T10:28:40;101262.50;;;32.44;30.96
9141;BME280;46330;50.822;7.126;2022-07-23T10:31:17;101255.59;;;33.36;30.92
9141;BME280;46330;50.822;7.126;2022-07-23T10:34:14;101254.81;;;31.77;32.22
9141;BME280;46330;50.822;7.126;2022-07-23T10:36:51;101244.06;;;32.12;32.65
9141;BME280;46330;50.822;7.126;2022-07-23T10:39:23;101251.53;;;31.73;33.73
9141;BME280;46330;50.822;7.126;2022-07-23T10:41:52;101249.81;;;30.89;34.47
9141;BME280;46330;50.822;7.126;2022-07-23T10:44:21;101249.38;;;31.77;33.54
9141;BME280;46330;50.822;7.126;2022-07-23T10:46:54;101240.81;;;32.09;32.43
9141;BME280;46330;50.822;7.126;2022-07-23T10:49:31;101240.78;;;31.91;31.83
9141;BME280;46330;50.822;7.126;2022-07-23T10:52:20;101243.53;;;33.05;30.91
9141;BME280;46330;50.822;7.126;2022-07-23T10:54:50;101247.72;;;31.93;31.85
9141;BME280;46330;50.822;7.126;2022-07-23T10:57:19;101234.34;;;31.92;31.67
9141;BME280;46330;50.822;7.126;2022-07-23T11:00:14;101250.19;;;32.14;30.94
9141;BME280;46330;50.822;7.126;2022-07-23T11:02:45;101241.19;;;32.84;29.98
9141;BME280;46330;50.822;7.126;2022-07-23T11:05:15;101238.34;;;32.15;30.33
9141;BME280;46330;50.822;7.126;2022-07-23T11:10:54;101238.63;;;31.94;30.43
9141;BME280;46330;50.822;7.126;2022-07-23T11:13:28;101238.69;;;33.50;29.44
9141;BME280;46330;50.822;7.126;2022-07-23T11:16:08;101233.72;;;32.86;30.68
9141;BME280;46330;50.822;7.126;2022-07-23T11:18:59;101229.91;;;32.54;29.50
9141;BME280;46330;50.822;7.126;2022-07-23T11:21:49;101234.44;;;32.00;30.57
9141;BME280;46330;50.822;7.126;2022-07-23T11:24:23;101231.63;;;31.92;31.48
9141;BME280;46330;50.822;7.126;2022-07-23T11:27:03;101232.53;;;31.65;30.48
9141;BME280;46330;50.822;7.126;2022-07-23T11:29:41;101228.59;;;32.05;30.28
9141;BME280;46330;50.822;7.126;2022-07-23T11:32:33;101232.78;;;33.47;28.11
9141;BME280;46330;50.822;7.126;2022-07-23T11:35:26;101228.44;;;33.28;27.79
9141;BME280;46330;50.822;7.126;2022-07-23T11:38:04;101219.81;;;32.81;28.39
9141;BME280;46330;50.822;7.126;2022-07-23T11:40:33;101228.59;;;32.75;28.00
9141;BME280;46330;50.822;7.126;2022-07-23T11:43:05;101229.31;;;32.60;28.45
9141;BME280;46330;50.822;7.126;2022-07-23T11:45:36;101229.63;;;32.57;28.70
9141;BME280;46330;50.822;7.126;2022-07-23T11:48:06;101228.31;;;32.86;28.31
9141;BME280;46330;50.822;7.126;2022-07-23T11:50:35;101239.66;;;33.41;26.89
9141;BME280;46330;50.822;7.126;2022-07-23T11:53:03;101236.19;;;32.72;27.50
9141;BME280;46330;50.822;7.126;2022-07-23T11:55:31;101225.13;;;32.65;27.83
9141;BME280;46330;50.822;7.126;2022-07-23T11:57:59;101224.56;;;34.63;26.35
9141;BME280;46330;50.822;7.126;2022-07-23T12:00:30;101227.09;;;33.66;27.39
9141;BME280;46330;50.822;7.126;2022-07-23T12:03:06;101231.50;;;33.33;26.68
9141;BME280;46330;50.822;7.126;2022-07-23T12:05:35;101223.03;;;32.24;27.15
9141;BME280;46330;50.822;7.126;2022-07-23T12:08:05;101233.84;;;32.77;27.32
9141;BME280;46330;50.822;7.126;2022-07-23T12:10:36;101231.63;;;32.72;26.75
9141;BME280;46330;50.822;7.126;2022-07-23T12:13:05;101234.09;;;32.66;27.26
9141;BME280;46330;50.822;7.126;2022-07-23T12:15:41;101227.03;;;32.20;27.47
9141;BME280;46330;50.822;7.126;2022-07-23T12:18:10;101227.41;;;32.78;26.14
9141;BME280;46330;50.822;7.126;2022-07-23T12:20:40;101220.78;;;32.72;26.26
9141;BME280;46330;50.822;7.126;2022-07-23T12:23:10;101226.16;;;32.02;27.24
9141;BME280;46330;50.822;7.126;2022-07-23T12:25:46;101224.78;;;31.98;27.74
9141;BME280;46330;50.822;7.126;2022-07-23T12:28:16;101215.53;;;32.18;27.79
9141;BME280;46330;50.822;7.126;2022-07-23T12:30:47;101224.53;;;32.79;26.71
9141;BME280;46330;50.822;7.126;2022-07-23T12:33:22;101212.50;;;32.03;27.70
9141;BME280;46330;50.822;7.126;2022-07-23T12:35:51;101214.91;;;32.85;27.75
9141;BME280;46330;50.822;7.126;2022-07-23T12:38:21;101213.38;;;32.57;27.27
9141;BME280;46330;50.822;7.126;2022-07-23T12:40:51;101219.50;;;32.84;27.18
9141;BME280;46330;50.822;7.126;2022-07-23T12:43:22;101221.34;;;31.51;28.61
9141;BME280;46330;50.822;7.126;2022-07-23T12:45:52;101224.50;;;32.97;27.15
9141;BME280;46330;50.822;7.126;2022-07-23T12:48:23;101224.34;;;31.48;29.26
9141;BME280;46330;50.822;7.126;2022-07-23T12:50:55;101230.16;;;31.80;29.26
9141;BME280;46330;50.822;7.126;2022-07-23T12:53:26;101219.59;;;32.39;28.24
9141;BME280;46330;50.822;7.126;2022-07-23T12:56:03;101226.13;;;31.84;28.66
9141;BME280;46330;50.822;7.126;2022-07-23T12:58:46;101217.06;;;32.38;28.21
9141;BME280;46330;50.822;7.126;2022-07-23T13:01:27;101222.09;;;32.15;29.55
9141;BME280;46330;50.822;7.126;2022-07-23T13:03:58;101227.31;;;31.81;29.58
9141;BME280;46330;50.822;7.126;2022-07-23T13:06:26;101233.41;;;32.28;30.30
9141;BME280;46330;50.822;7.126;2022-07-23T13:08:55;101227.75;;;32.39;29.46
9141;BME280;46330;50.822;7.126;2022-07-23T13:11:23;101222.19;;;32.06;29.72
9141;BME280;46330;50.822;7.126;2022-07-23T13:13:52;101233.34;;;31.93;29.54
9141;BME280;46330;50.822;7.126;2022-07-23T13:16:20;101240.00;;;31.44;30.16
9141;BME280;46330;50.822;7.126;2022-07-23T13:18:49;101224.88;;;31.14;30.96
9141;BME280;46330;50.822;7.126;2022-07-23T13:21:17;101230.59;;;30.92;31.47